createdAt,value
2023-03-24T00:02:18.896Z,1.60
2023-03-24T00:04:47.908Z,1.48
2023-03-24T00:07:15.119Z,1.50
2023-03-24T00:09:45.983Z,1.40
2023-03-24T00:12:14.170Z,1.90
2023-03-24T00:14:48.550Z,1.90
2023-03-24T00:17:20.228Z,2.13
2023-03-24T00:19:48.658Z,2.60
2023-03-24T00:22:17.466Z,2.22
2023-03-24T00:24:54.541Z,2.50
2023-03-24T00:27:33.172Z,2.53
2023-03-24T00:30:09.920Z,3.30
2023-03-24T00:32:39.275Z,3.47
2023-03-24T00:35:06.405Z,3.08
2023-03-24T00:37:32.840Z,3.10
2023-03-24T00:39:59.723Z,3.20
2023-03-24T00:42:35.145Z,3.65
2023-03-24T00:45:14.848Z,2.90
2023-03-24T00:47:44.613Z,3.35
2023-03-24T00:50:15.939Z,3.13
2023-03-24T00:52:44.283Z,3.25
2023-03-24T00:55:19.102Z,3.75
2023-03-24T00:57:52.222Z,4.43
2023-03-24T01:00:24.345Z,2.80
2023-03-24T01:02:55.770Z,5.18
2023-03-24T01:05:23.609Z,4.63
2023-03-24T01:07:55.021Z,4.45
2023-03-24T01:10:26.252Z,3.95
2023-03-24T01:12:55.060Z,3.38
2023-03-24T01:15:23.353Z,2.95
2023-03-24T01:17:49.727Z,3.28
2023-03-24T01:20:25.068Z,3.08
2023-03-24T01:22:51.559Z,4.00
2023-03-24T01:25:26.636Z,3.33
2023-03-24T01:27:53.526Z,2.38
2023-03-24T01:30:27.460Z,2.90
2023-03-24T01:32:53.951Z,2.38
2023-03-24T01:35:21.288Z,2.50
2023-03-24T01:37:47.603Z,2.83
2023-03-24T01:40:17.609Z,2.33
2023-03-24T01:42:44.057Z,2.63
2023-03-24T01:45:33.361Z,2.30
2023-03-24T01:50:47.816Z,2.33
2023-03-24T01:53:15.441Z,2.13
2023-03-24T01:55:42.704Z,2.33
2023-03-24T01:58:32.670Z,2.15
2023-03-24T02:00:59.182Z,2.42
2023-03-24T02:03:26.079Z,2.13
2023-03-24T02:05:53.726Z,2.08
2023-03-24T02:08:41.172Z,2.58
2023-03-24T02:11:17.168Z,2.55
2023-03-24T02:13:46.473Z,2.47
2023-03-24T02:16:44.833Z,2.78
2023-03-24T02:19:27.479Z,2.22
2023-03-24T02:21:53.960Z,4.45
2023-03-24T02:24:39.029Z,2.65
2023-03-24T02:27:09.742Z,2.70
2023-03-24T02:29:42.249Z,2.47
2023-03-24T02:32:27.425Z,4.13
2023-03-24T02:35:12.007Z,2.65
2023-03-24T02:37:38.466Z,2.80
2023-03-24T02:40:08.127Z,2.50
2023-03-24T02:43:07.969Z,3.05
2023-03-24T02:45:35.875Z,2.75
2023-03-24T02:48:05.157Z,3.25
2023-03-24T02:50:45.783Z,5.17
2023-03-24T02:53:18.376Z,2.70
2023-03-24T02:55:53.489Z,2.92
2023-03-24T02:58:41.018Z,3.30
2023-03-24T03:01:27.801Z,3.20
2023-03-24T03:03:55.639Z,2.85
2023-03-24T03:06:24.328Z,2.65
2023-03-24T03:08:55.550Z,3.20
2023-03-24T03:11:24.899Z,2.72
2023-03-24T03:14:17.786Z,4.07
2023-03-24T03:16:53.487Z,3.58
2023-03-24T03:19:34.569Z,3.58
2023-03-24T03:22:02.632Z,4.28
2023-03-24T03:24:32.338Z,3.65
2023-03-24T03:27:01.967Z,3.67
2023-03-24T03:29:32.802Z,3.72
2023-03-24T03:32:07.480Z,3.97
2023-03-24T03:34:37.808Z,3.17
2023-03-24T03:37:07.654Z,3.50
2023-03-24T03:39:37.018Z,3.90
2023-03-24T03:42:04.298Z,3.40
2023-03-24T03:44:31.160Z,3.53
2023-03-24T03:47:04.956Z,2.90
2023-03-24T03:49:43.106Z,4.10
2023-03-24T03:52:11.198Z,3.55
2023-03-24T03:54:37.937Z,4.65
2023-03-24T03:57:04.755Z,4.30
2023-03-24T03:59:39.164Z,4.00
2023-03-24T04:02:17.055Z,4.38
2023-03-24T04:05:05.688Z,3.83
2023-03-24T04:07:38.716Z,3.60
2023-03-24T04:10:20.324Z,4.07
2023-03-24T04:12:52.688Z,4.10
2023-03-24T04:15:24.505Z,4.25
2023-03-24T04:18:14.363Z,3.83
2023-03-24T04:20:46.743Z,3.72
2023-03-24T04:23:31.369Z,4.20
2023-03-24T04:25:58.696Z,5.00
2023-03-24T04:28:37.533Z,4.90
2023-03-24T04:31:27.344Z,3.78
2023-03-24T04:34:07.879Z,4.53
2023-03-24T04:36:42.555Z,4.63
2023-03-24T04:39:17.188Z,4.43
2023-03-24T04:41:47.984Z,4.70
2023-03-24T04:44:21.811Z,4.50
2023-03-24T04:47:02.148Z,4.93
2023-03-24T04:49:35.961Z,4.85
2023-03-24T04:52:02.315Z,4.95
2023-03-24T04:54:29.749Z,4.47
2023-03-24T04:57:04.178Z,4.80
2023-03-24T04:59:49.212Z,4.90
2023-03-24T05:02:21.645Z,5.13
2023-03-24T05:04:51.230Z,4.70
2023-03-24T05:07:21.900Z,4.45
2023-03-24T05:10:01.138Z,4.38
2023-03-24T05:12:31.946Z,4.37
2023-03-24T05:15:01.270Z,4.88
2023-03-24T05:17:47.025Z,4.72
2023-03-24T05:20:15.185Z,4.50
2023-03-24T05:22:41.677Z,4.80
2023-03-24T05:25:08.264Z,4.80
2023-03-24T05:27:35.605Z,4.18
2023-03-24T05:30:01.897Z,4.13
2023-03-24T05:32:34.658Z,4.28
2023-03-24T05:35:01.763Z,4.50
2023-03-24T05:37:33.283Z,3.30
2023-03-24T05:40:08.962Z,3.83
2023-03-24T05:43:38.014Z,3.38
2023-03-24T05:45:27.867Z,3.30
2023-03-24T05:48:00.001Z,2.80
2023-03-24T05:53:07.598Z,3.50
2023-03-24T05:55:37.590Z,3.20
2023-03-24T05:58:04.022Z,3.80
2023-03-24T06:00:37.432Z,3.30
2023-03-24T06:03:09.697Z,4.00
2023-03-24T06:05:48.110Z,3.58
2023-03-24T06:08:22.093Z,3.63
2023-03-24T06:10:49.612Z,4.00
2023-03-24T06:13:15.967Z,3.40
2023-03-24T06:15:45.178Z,4.30
2023-03-24T06:18:44.179Z,5.18
2023-03-24T06:21:08.901Z,5.18
2023-03-24T06:23:41.666Z,4.45
2023-03-24T06:26:12.583Z,4.78
2023-03-24T06:28:41.527Z,4.72
2023-03-24T06:31:20.051Z,4.97
2023-03-24T06:34:01.593Z,6.70
2023-03-24T06:36:33.445Z,4.03
2023-03-24T06:39:03.932Z,4.30
2023-03-24T06:41:36.675Z,5.43
2023-03-24T06:44:28.429Z,4.45
2023-03-24T06:46:54.913Z,4.13
2023-03-24T06:49:34.222Z,4.45
2023-03-24T06:52:09.702Z,4.10
2023-03-24T06:54:39.650Z,4.13
2023-03-24T06:57:08.440Z,3.92
2023-03-24T06:59:39.807Z,4.45
2023-03-24T07:09:19.123Z,4.25
2023-03-24T07:11:52.060Z,3.47
2023-03-24T07:14:22.224Z,5.80
2023-03-24T07:19:29.245Z,3.33
2023-03-24T07:21:56.043Z,3.00
2023-03-24T07:24:26.254Z,4.00
2023-03-24T07:27:02.480Z,3.17
2023-03-24T07:29:51.343Z,2.92
2023-03-24T07:32:16.035Z,2.92
2023-03-24T07:34:43.936Z,3.65
2023-03-24T07:37:10.588Z,3.45
2023-03-24T10:48:44.850Z,0.75
2023-03-24T10:51:23.243Z,0.80
2023-03-24T10:54:10.702Z,0.20
2023-03-24T10:57:06.600Z,0.25
2023-03-24T11:00:12.620Z,0.47
2023-03-24T11:03:05.252Z,0.45
2023-03-24T11:05:35.045Z,0.35
2023-03-24T11:08:31.083Z,1.38
2023-03-24T11:11:00.626Z,1.35
2023-03-24T11:14:12.462Z,0.20
2023-03-24T11:19:32.488Z,0.47
2023-03-24T11:22:05.644Z,0.10
2023-03-24T11:24:35.665Z,0.38
2023-03-24T11:27:17.367Z,0.38
2023-03-24T11:29:54.579Z,0.20
2023-03-24T11:32:37.385Z,0.30
2023-03-24T11:35:09.482Z,0.25
2023-03-24T11:37:38.877Z,0.73
2023-03-24T11:40:17.516Z,0.30
2023-03-24T11:42:54.932Z,0.55
2023-03-24T11:45:29.939Z,0.82
2023-03-24T11:47:57.446Z,1.00
2023-03-24T11:50:27.287Z,1.00
2023-03-24T11:53:00.429Z,0.32
2023-03-24T11:55:36.226Z,0.13
2023-03-24T11:58:10.781Z,0.43
2023-03-24T12:00:42.416Z,0.50
2023-03-24T12:03:11.659Z,0.40
2023-03-24T12:05:42.491Z,0.22
2023-03-24T12:08:26.415Z,0.52
2023-03-24T12:10:52.838Z,0.60
2023-03-24T12:13:32.460Z,0.28
2023-03-24T12:16:00.610Z,0.30
2023-03-24T12:18:34.595Z,0.30
2023-03-24T12:21:25.500Z,0.45
2023-03-24T12:23:54.881Z,0.40
2023-03-24T12:26:57.564Z,0.40
2023-03-24T12:29:34.220Z,0.63
2023-03-24T12:32:21.056Z,0.32
2023-03-24T12:35:17.326Z,0.40
2023-03-24T12:38:12.798Z,0.25
2023-03-24T12:44:26.109Z,0.52
2023-03-24T12:46:58.591Z,0.35
2023-03-24T12:49:37.741Z,1.25
2023-03-24T12:52:07.185Z,1.40
2023-03-24T12:54:36.649Z,1.08
2023-03-24T12:57:11.687Z,0.60
2023-03-24T12:59:39.821Z,0.40
2023-03-24T13:02:27.526Z,0.50
2023-03-24T13:05:06.172Z,0.80
2023-03-24T13:07:54.644Z,0.50
2023-03-24T13:10:28.354Z,0.82
2023-03-24T13:13:13.662Z,0.65
2023-03-24T13:15:45.353Z,0.75
2023-03-24T13:18:18.159Z,0.95
2023-03-24T13:21:09.199Z,1.33
2023-03-24T13:24:01.723Z,1.98
2023-03-24T13:26:57.461Z,0.98
2023-03-24T13:29:48.500Z,0.63
2023-03-24T13:32:24.828Z,1.23
2023-03-24T13:34:51.261Z,0.88
2023-03-24T13:37:22.835Z,1.23
2023-03-24T13:39:51.982Z,1.63
2023-03-24T13:42:29.867Z,1.30
2023-03-24T13:45:03.908Z,1.25
2023-03-24T13:47:53.797Z,1.65
2023-03-24T13:50:21.302Z,1.65
2023-03-24T13:53:01.083Z,0.93
2023-03-24T13:55:54.607Z,3.50
2023-03-24T13:59:35.759Z,1.20
2023-03-24T14:02:42.552Z,0.55
2023-03-24T14:05:11.209Z,2.10
2023-03-24T14:07:46.452Z,1.35
2023-03-24T14:10:16.687Z,0.80
2023-03-24T14:13:02.001Z,1.00
2023-03-24T14:15:31.390Z,1.77
2023-03-24T14:18:20.788Z,1.85
2023-03-24T14:21:13.596Z,1.02
2023-03-24T14:23:51.609Z,0.70
2023-03-24T14:26:28.420Z,0.68
2023-03-24T14:29:03.062Z,1.58
2023-03-24T14:31:47.001Z,1.00
2023-03-24T14:34:40.209Z,0.90
2023-03-24T14:37:26.583Z,0.93
2023-03-24T14:39:53.704Z,1.70
2023-03-24T14:42:32.568Z,1.23
2023-03-24T14:45:37.520Z,1.30
2023-03-24T14:48:16.882Z,1.27
2023-03-24T14:51:17.765Z,2.67
2023-03-24T14:53:38.495Z,1.70
2023-03-24T14:56:07.923Z,1.17
2023-03-24T14:58:47.841Z,1.35
2023-03-24T15:01:27.791Z,1.02
2023-03-24T15:06:30.371Z,1.17
2023-03-24T15:09:16.014Z,0.63
2023-03-24T15:11:46.760Z,1.08
2023-03-24T15:14:25.927Z,1.67
2023-03-24T15:17:18.640Z,1.25
2023-03-24T15:19:49.602Z,1.60
2023-03-24T15:22:16.082Z,1.20
2023-03-24T15:24:47.277Z,0.80
2023-03-24T15:27:28.698Z,0.82
2023-03-24T15:30:02.024Z,1.35
2023-03-24T15:32:42.384Z,3.72
2023-03-24T15:38:00.613Z,0.88
2023-03-24T15:40:26.996Z,1.30
2023-03-24T15:43:00.401Z,0.65
2023-03-24T15:45:37.709Z,0.65
2023-03-24T15:48:18.151Z,1.52
2023-03-24T15:51:06.507Z,0.82
2023-03-24T15:53:44.811Z,1.05
2023-03-24T15:56:31.773Z,0.68
2023-03-24T15:59:08.022Z,0.77
2023-03-24T16:01:38.740Z,2.03
2023-03-24T16:04:07.198Z,1.27
2023-03-24T16:06:40.904Z,0.70
2023-03-24T16:09:10.622Z,1.75
2023-03-24T16:11:37.065Z,0.73
2023-03-24T16:14:11.958Z,0.55
2023-03-24T16:16:40.838Z,0.82
2023-03-24T16:19:08.350Z,0.80
2023-03-24T16:21:34.919Z,0.95
2023-03-24T16:24:02.310Z,0.90
2023-03-24T16:26:29.866Z,1.10
2023-03-24T16:29:00.542Z,0.65
2023-03-24T16:31:30.657Z,1.23
2023-03-24T16:36:26.734Z,0.98
2023-03-24T16:39:13.329Z,1.13
2023-03-24T16:41:45.999Z,1.02
2023-03-24T16:44:16.832Z,0.73
2023-03-24T16:49:50.811Z,1.00
2023-03-24T16:52:20.150Z,0.68
2023-03-24T16:54:59.262Z,0.57
2023-03-24T16:57:56.998Z,1.38
2023-03-24T17:00:28.858Z,0.60
2023-03-24T17:03:22.717Z,0.80
2023-03-24T20:14:51.788Z,0.63
2023-03-24T20:17:24.475Z,1.88
2023-03-24T20:19:50.965Z,1.52
2023-03-24T20:22:17.386Z,1.42
2023-03-24T20:25:00.448Z,0.90
2023-03-24T20:27:35.803Z,2.42
2023-03-24T20:30:04.868Z,1.35
2023-03-24T20:32:46.868Z,0.60
2023-03-24T20:35:16.533Z,0.10
2023-03-24T20:37:57.139Z,0.50
2023-03-24T20:40:24.716Z,0.40
2023-03-24T20:42:53.792Z,0.70
2023-03-24T20:45:20.159Z,0.40
2023-03-24T20:47:53.328Z,0.85
2023-03-24T20:50:19.959Z,0.70
2023-03-24T20:52:49.724Z,0.52
2023-03-24T20:55:16.444Z,0.55
2023-03-24T20:57:42.956Z,0.45
2023-03-24T21:00:18.127Z,0.40
2023-03-24T21:02:44.598Z,0.50
2023-03-24T21:05:34.409Z,0.50
2023-03-24T21:08:08.294Z,0.88
2023-03-24T21:13:16.991Z,0.95
2023-03-24T21:15:50.068Z,0.75
2023-03-24T21:18:16.926Z,0.60
2023-03-24T21:20:53.394Z,0.70
2023-03-24T21:23:23.457Z,0.95
2023-03-24T21:25:50.772Z,0.98
2023-03-24T21:28:18.479Z,1.00
2023-03-24T21:30:54.762Z,0.90
2023-03-24T21:33:34.078Z,1.50
2023-03-24T21:36:02.981Z,0.98
2023-03-24T21:38:33.768Z,0.93
2023-03-24T21:41:12.792Z,0.85
2023-03-24T21:43:40.497Z,0.85
2023-03-24T21:46:14.987Z,0.80
2023-03-24T21:54:25.288Z,0.98
2023-03-24T21:57:03.005Z,0.68
2023-03-24T21:59:37.651Z,0.90
2023-03-24T22:02:06.505Z,1.05
2023-03-24T22:04:38.260Z,0.60
2023-03-24T22:07:07.162Z,0.88
2023-03-24T22:09:36.282Z,2.20
2023-03-24T22:12:09.257Z,0.90
2023-03-24T22:14:51.275Z,0.85
2023-03-24T22:20:35.151Z,0.77
2023-03-24T22:23:14.582Z,1.00
2023-03-24T22:25:40.987Z,1.00
2023-03-24T22:28:07.504Z,2.15
2023-03-24T22:30:36.638Z,0.70
2023-03-24T22:33:03.203Z,0.90
2023-03-24T22:35:32.090Z,1.13
2023-03-24T22:38:00.470Z,0.77
2023-03-24T22:40:34.155Z,1.15
2023-03-24T22:43:02.966Z,0.90
2023-03-24T22:45:29.350Z,0.73
2023-03-24T22:47:58.141Z,0.95
2023-03-24T22:50:26.983Z,0.77
2023-03-24T22:52:53.460Z,1.30
2023-03-24T22:55:25.605Z,0.63
2023-03-24T22:57:52.076Z,0.77
2023-03-24T23:00:20.879Z,1.30
2023-03-24T23:02:48.080Z,0.65
2023-03-24T23:05:14.830Z,0.65
2023-03-24T23:07:42.271Z,0.98
2023-03-24T23:10:08.869Z,1.67
2023-03-24T23:12:36.653Z,1.05
2023-03-24T23:15:04.368Z,1.00
2023-03-24T23:17:35.603Z,1.40
2023-03-24T23:20:07.859Z,0.80
2023-03-24T23:22:42.248Z,0.63
2023-03-24T23:25:19.557Z,0.98
2023-03-24T23:27:55.257Z,0.98
2023-03-24T23:30:27.567Z,0.95
2023-03-24T23:33:07.446Z,0.57
2023-03-24T23:35:49.111Z,1.15
2023-03-24T23:38:17.873Z,0.57
2023-03-24T23:41:09.624Z,0.55
2023-03-24T23:44:06.558Z,0.65
2023-03-24T23:46:45.898Z,0.60
2023-03-24T23:49:21.711Z,0.82
2023-03-24T23:51:48.091Z,0.70
2023-03-24T23:54:17.556Z,0.55
2023-03-24T23:56:51.552Z,0.52
2023-03-24T23:59:22.838Z,0.60
